sensor_id;sensor_type;location;lat;lon;timestamp;temperature;humidity
2439;DHT22;14509;47.992;7.848;2022-11-15T00:00:49;15.90;52.70
2439;DHT22;14509;47.992;7.848;2022-11-15T00:03:09;15.90;52.70
2439;DHT22;14509;47.992;7.848;2022-11-15T00:05:34;15.90;52.80
2439;DHT22;14509;47.992;7.848;2022-11-15T00:07:56;15.90;52.90
2439;DHT22;14509;47.992;7.848;2022-11-15T00:10:17;15.80;52.90
2439;DHT22;14509;47.992;7.848;2022-11-15T00:12:37;15.90;53.10
2439;DHT22;14509;47.992;7.848;2022-11-15T00:14:59;15.80;53.10
2439;DHT22;14509;47.992;7.848;2022-11-15T00:17:20;15.80;53.20
2439;DHT22;14509;47.992;7.848;2022-11-15T00:19:40;15.80;53.20
2439;DHT22;14509;47.992;7.848;2022-11-15T00:22:01;15.80;53.30
2439;DHT22;14509;47.992;7.848;2022-11-15T00:24:21;15.80;53.20
2439;DHT22;14509;47.992;7.848;2022-11-15T00:26:42;15.80;53.30
2439;DHT22;14509;47.992;7.848;2022-11-15T00:29:03;15.80;53.30
2439;DHT22;14509;47.992;7.848;2022-11-15T00:31:25;15.80;53.40
2439;DHT22;14509;47.992;7.848;2022-11-15T00:33:45;15.80;53.30
2439;DHT22;14509;47.992;7.848;2022-11-15T00:36:08;15.80;53.50
2439;DHT22;14509;47.992;7.848;2022-11-15T00:38:33;15.80;54.20
2439;DHT22;14509;47.992;7.848;2022-11-15T00:40:53;15.80;53.70
2439;DHT22;14509;47.992;7.848;2022-11-15T00:43:14;15.80;53.80
2439;DHT22;14509;47.992;7.848;2022-11-15T00:45:35;15.80;53.80
2439;DHT22;14509;47.992;7.848;2022-11-15T00:47:56;15.80;53.80
2439;DHT22;14509;47.992;7.848;2022-11-15T00:50:17;15.80;53.80
2439;DHT22;14509;47.992;7.848;2022-11-15T00:52:38;15.80;53.80
2439;DHT22;14509;47.992;7.848;2022-11-15T00:54:59;15.80;53.70
2439;DHT22;14509;47.992;7.848;2022-11-15T00:57:20;15.80;53.70
2439;DHT22;14509;47.992;7.848;2022-11-15T00:59:40;15.80;53.80
2439;DHT22;14509;47.992;7.848;2022-11-15T01:02:01;15.80;53.80
2439;DHT22;14509;47.992;7.848;2022-11-15T01:04:23;15.70;53.90
2439;DHT22;14509;47.992;7.848;2022-11-15T01:06:44;15.70;54.10
2439;DHT22;14509;47.992;7.848;2022-11-15T01:09:04;15.80;54.20
2439;DHT22;14509;47.992;7.848;2022-11-15T01:11:25;15.80;54.10
2439;DHT22;14509;47.992;7.848;2022-11-15T01:13:46;15.90;54.10
2439;DHT22;14509;47.992;7.848;2022-11-15T01:16:08;15.90;53.90
2439;DHT22;14509;47.992;7.848;2022-11-15T01:18:29;16.10;53.80
2439;DHT22;14509;47.992;7.848;2022-11-15T01:20:51;16.10;53.60
2439;DHT22;14509;47.992;7.848;2022-11-15T01:23:11;16.10;53.30
2439;DHT22;14509;47.992;7.848;2022-11-15T01:25:32;16.30;53.30
2439;DHT22;14509;47.992;7.848;2022-11-15T01:27:53;16.30;53.10
2439;DHT22;14509;47.992;7.848;2022-11-15T01:30:13;16.40;53.00
2439;DHT22;14509;47.992;7.848;2022-11-15T01:32:34;16.50;52.80
2439;DHT22;14509;47.992;7.848;2022-11-15T01:34:54;16.50;52.20
2439;DHT22;14509;47.992;7.848;2022-11-15T01:37:16;16.60;52.20
2439;DHT22;14509;47.992;7.848;2022-11-15T01:39:37;16.70;51.80
2439;DHT22;14509;47.992;7.848;2022-11-15T01:41:57;16.80;51.50
2439;DHT22;14509;47.992;7.848;2022-11-15T01:44:42;16.90;51.10
2439;DHT22;14509;47.992;7.848;2022-11-15T01:47:06;17.10;50.60
2439;DHT22;14509;47.992;7.848;2022-11-15T01:49:31;17.10;50.40
2439;DHT22;14509;47.992;7.848;2022-11-15T01:51:52;17.10;50.20
2439;DHT22;14509;47.992;7.848;2022-11-15T01:54:18;17.10;50.10
2439;DHT22;14509;47.992;7.848;2022-11-15T01:56:44;17.10;50.10
2439;DHT22;14509;47.992;7.848;2022-11-15T01:59:07;17.20;50.20
2439;DHT22;14509;47.992;7.848;2022-11-15T02:01:30;17.10;50.20
2439;DHT22;14509;47.992;7.848;2022-11-15T02:03:55;17.10;50.20
2439;DHT22;14509;47.992;7.848;2022-11-15T02:06:17;17.10;50.00
2439;DHT22;14509;47.992;7.848;2022-11-15T02:08:37;17.10;50.00
2439;DHT22;14509;47.992;7.848;2022-11-15T02:10:59;17.10;50.10
2439;DHT22;14509;47.992;7.848;2022-11-15T02:13:19;17.10;50.10
2439;DHT22;14509;47.992;7.848;2022-11-15T02:15:47;17.10;50.10
2439;DHT22;14509;47.992;7.848;2022-11-15T02:18:17;17.10;50.20
2439;DHT22;14509;47.992;7.848;2022-11-15T02:20:46;17.10;50.10
2439;DHT22;14509;47.992;7.848;2022-11-15T02:26:16;17.10;50.00
2439;DHT22;14509;47.992;7.848;2022-11-15T02:28:50;17.10;50.10
2439;DHT22;14509;47.992;7.848;2022-11-15T02:31:19;17.10;50.10
2439;DHT22;14509;47.992;7.848;2022-11-15T02:33:49;17.10;50.30
2439;DHT22;14509;47.992;7.848;2022-11-15T02:36:18;17.10;50.40
2439;DHT22;14509;47.992;7.848;2022-11-15T02:38:45;17.20;50.60
2439;DHT22;14509;47.992;7.848;2022-11-15T02:41:10;17.20;50.50
2439;DHT22;14509;47.992;7.848;2022-11-15T02:43:55;17.30;50.40
2439;DHT22;14509;47.992;7.848;2022-11-15T02:46:21;17.50;50.20
2439;DHT22;14509;47.992;7.848;2022-11-15T02:49:03;17.50;49.90
2439;DHT22;14509;47.992;7.848;2022-11-15T02:51:23;17.70;49.70
2439;DHT22;14509;47.992;7.848;2022-11-15T02:53:44;17.70;49.50
2439;DHT22;14509;47.992;7.848;2022-11-15T02:56:05;17.80;49.30
2439;DHT22;14509;47.992;7.848;2022-11-15T02:58:41;17.90;49.80
2439;DHT22;14509;47.992;7.848;2022-11-15T03:01:08;17.90;49.10
2439;DHT22;14509;47.992;7.848;2022-11-15T03:03:49;17.90;48.90
2439;DHT22;14509;47.992;7.848;2022-11-15T03:06:22;17.90;48.90
2439;DHT22;14509;47.992;7.848;2022-11-15T03:08:54;18.00;48.90
2439;DHT22;14509;47.992;7.848;2022-11-15T03:11:19;17.90;48.90
2439;DHT22;14509;47.992;7.848;2022-11-15T03:13:46;17.90;48.90
2439;DHT22;14509;47.992;7.848;2022-11-15T03:16:11;17.90;49.00
2439;DHT22;14509;47.992;7.848;2022-11-15T03:18:36;17.90;49.10
2439;DHT22;14509;47.992;7.848;2022-11-15T03:21:02;17.80;49.30
2439;DHT22;14509;47.992;7.848;2022-11-15T03:23:25;17.80;49.50
2439;DHT22;14509;47.992;7.848;2022-11-15T03:25:48;17.80;49.70
2439;DHT22;14509;47.992;7.848;2022-11-15T03:28:11;17.70;49.80
2439;DHT22;14509;47.992;7.848;2022-11-15T03:30:34;17.70;50.00
2439;DHT22;14509;47.992;7.848;2022-11-15T03:32:58;17.70;50.20
2439;DHT22;14509;47.992;7.848;2022-11-15T03:35:21;17.60;50.20
2439;DHT22;14509;47.992;7.848;2022-11-15T03:37:47;17.60;50.40
2439;DHT22;14509;47.992;7.848;2022-11-15T03:40:09;17.60;50.50
2439;DHT22;14509;47.992;7.848;2022-11-15T03:42:33;17.50;50.50
2439;DHT22;14509;47.992;7.848;2022-11-15T03:45:01;17.50;50.70
2439;DHT22;14509;47.992;7.848;2022-11-15T03:47:27;17.50;50.70
2439;DHT22;14509;47.992;7.848;2022-11-15T03:49:52;17.50;50.90
2439;DHT22;14509;47.992;7.848;2022-11-15T03:52:13;17.50;50.90
2439;DHT22;14509;47.992;7.848;2022-11-15T03:54:47;17.50;50.90
2439;DHT22;14509;47.992;7.848;2022-11-15T03:57:08;17.50;50.90
2439;DHT22;14509;47.992;7.848;2022-11-15T03:59:29;17.50;50.90
2439;DHT22;14509;47.992;7.848;2022-11-15T04:01:49;17.50;51.00
2439;DHT22;14509;47.992;7.848;2022-11-15T04:04:10;17.50;51.00
2439;DHT22;14509;47.992;7.848;2022-11-15T04:06:30;17.50;51.00
2439;DHT22;14509;47.992;7.848;2022-11-15T04:08:51;17.50;50.90
2439;DHT22;14509;47.992;7.848;2022-11-15T04:11:13;17.50;50.70
2439;DHT22;14509;47.992;7.848;2022-11-15T04:13:33;17.50;50.50
2439;DHT22;14509;47.992;7.848;2022-11-15T04:15:54;17.60;50.40
2439;DHT22;14509;47.992;7.848;2022-11-15T04:18:14;17.50;50.40
2439;DHT22;14509;47.992;7.848;2022-11-15T04:20:35;17.50;50.70
2439;DHT22;14509;47.992;7.848;2022-11-15T04:23:15;17.50;51.00
2439;DHT22;14509;47.992;7.848;2022-11-15T04:25:55;17.40;51.20
2439;DHT22;14509;47.992;7.848;2022-11-15T04:28:18;17.40;51.50
2439;DHT22;14509;47.992;7.848;2022-11-15T04:30:39;17.40;51.60
2439;DHT22;14509;47.992;7.848;2022-11-15T04:32:59;17.40;51.80
2439;DHT22;14509;47.992;7.848;2022-11-15T04:35:20;17.30;52.00
2439;DHT22;14509;47.992;7.848;2022-11-15T04:37:41;17.30;51.10
2439;DHT22;14509;47.992;7.848;2022-11-15T04:40:00;17.30;51.20
2439;DHT22;14509;47.992;7.848;2022-11-15T04:42:21;17.20;51.10
2439;DHT22;14509;47.992;7.848;2022-11-15T04:44:43;17.20;51.30
2439;DHT22;14509;47.992;7.848;2022-11-15T04:47:03;17.10;51.30
2439;DHT22;14509;47.992;7.848;2022-11-15T04:49:25;17.10;51.50
2439;DHT22;14509;47.992;7.848;2022-11-15T04:51:45;17.00;51.60
2439;DHT22;14509;47.992;7.848;2022-11-15T04:54:06;16.90;51.60
2439;DHT22;14509;47.992;7.848;2022-11-15T04:56:26;16.90;51.60
2439;DHT22;14509;47.992;7.848;2022-11-15T04:58:48;16.90;51.70
2439;DHT22;14509;47.992;7.848;2022-11-15T05:01:11;16.90;51.80
2439;DHT22;14509;47.992;7.848;2022-11-15T05:03:33;16.90;51.90
2439;DHT22;14509;47.992;7.848;2022-11-15T05:06:11;16.90;52.10
2439;DHT22;14509;47.992;7.848;2022-11-15T05:08:32;16.80;52.20
2439;DHT22;14509;47.992;7.848;2022-11-15T05:10:52;16.80;52.30
2439;DHT22;14509;47.992;7.848;2022-11-15T05:13:13;16.80;52.50
2439;DHT22;14509;47.992;7.848;2022-11-15T05:15:33;16.80;52.60
2439;DHT22;14509;47.992;7.848;2022-11-15T05:17:58;16.70;52.60
2439;DHT22;14509;47.992;7.848;2022-11-15T05:20:19;16.70;52.70
2439;DHT22;14509;47.992;7.848;2022-11-15T05:22:40;16.60;52.70
2439;DHT22;14509;47.992;7.848;2022-11-15T05:25:01;16.60;52.80
2439;DHT22;14509;47.992;7.848;2022-11-15T05:27:22;16.60;53.00
2439;DHT22;14509;47.992;7.848;2022-11-15T05:29:42;16.60;53.10
2439;DHT22;14509;47.992;7.848;2022-11-15T05:32:04;16.50;53.10
2439;DHT22;14509;47.992;7.848;2022-11-15T05:34:27;16.50;53.20
2439;DHT22;14509;47.992;7.848;2022-11-15T05:36:48;16.50;53.40
2439;DHT22;14509;47.992;7.848;2022-11-15T05:39:08;16.40;53.90
2439;DHT22;14509;47.992;7.848;2022-11-15T05:41:32;16.50;53.50
2439;DHT22;14509;47.992;7.848;2022-11-15T05:43:53;16.40;53.50
2439;DHT22;14509;47.992;7.848;2022-11-15T05:46:14;16.50;53.80
2439;DHT22;14509;47.992;7.848;2022-11-15T05:48:36;16.40;53.80
2439;DHT22;14509;47.992;7.848;2022-11-15T05:50:59;16.40;53.90
2439;DHT22;14509;47.992;7.848;2022-11-15T05:53:21;16.30;54.00
2439;DHT22;14509;47.992;7.848;2022-11-15T05:55:42;16.30;54.20
2439;DHT22;14509;47.992;7.848;2022-11-15T05:58:03;16.30;54.20
2439;DHT22;14509;47.992;7.848;2022-11-15T06:00:24;16.20;54.40
2439;DHT22;14509;47.992;7.848;2022-11-15T06:02:44;16.20;54.60
2439;DHT22;14509;47.992;7.848;2022-11-15T06:05:05;16.20;54.80
2439;DHT22;14509;47.992;7.848;2022-11-15T06:07:28;16.10;54.90
2439;DHT22;14509;47.992;7.848;2022-11-15T06:09:49;16.10;55.10
2439;DHT22;14509;47.992;7.848;2022-11-15T06:12:09;16.00;55.20
2439;DHT22;14509;47.992;7.848;2022-11-15T06:14:30;16.00;55.50
2439;DHT22;14509;47.992;7.848;2022-11-15T06:16:51;15.90;55.60
2439;DHT22;14509;47.992;7.848;2022-11-15T06:19:11;15.90;55.80
2439;DHT22;14509;47.992;7.848;2022-11-15T06:21:32;15.90;56.10
2439;DHT22;14509;47.992;7.848;2022-11-15T06:23:54;15.90;56.20
2439;DHT22;14509;47.992;7.848;2022-11-15T06:26:15;15.90;56.50
2439;DHT22;14509;47.992;7.848;2022-11-15T06:28:35;15.90;57.20
2439;DHT22;14509;47.992;7.848;2022-11-15T06:31:01;15.90;56.80
2439;DHT22;14509;47.992;7.848;2022-11-15T06:33:21;15.90;57.50
2439;DHT22;14509;47.992;7.848;2022-11-15T06:35:42;15.90;57.00
2439;DHT22;14509;47.992;7.848;2022-11-15T06:38:04;15.90;57.20
2439;DHT22;14509;47.992;7.848;2022-11-15T06:40:27;15.90;57.50
2439;DHT22;14509;47.992;7.848;2022-11-15T06:42:47;15.90;57.60
2439;DHT22;14509;47.992;7.848;2022-11-15T06:45:08;15.90;57.70
2439;DHT22;14509;47.992;7.848;2022-11-15T06:47:29;15.90;57.80
2439;DHT22;14509;47.992;7.848;2022-11-15T06:49:49;15.90;57.90
2439;DHT22;14509;47.992;7.848;2022-11-15T06:52:10;16.00;58.00
2439;DHT22;14509;47.992;7.848;2022-11-15T06:54:30;15.90;58.10
2439;DHT22;14509;47.992;7.848;2022-11-15T06:56:52;16.00;58.20
2439;DHT22;14509;47.992;7.848;2022-11-15T06:59:13;16.10;58.30
2439;DHT22;14509;47.992;7.848;2022-11-15T07:01:34;16.00;58.20
2439;DHT22;14509;47.992;7.848;2022-11-15T07:03:54;16.10;58.40
2439;DHT22;14509;47.992;7.848;2022-11-15T07:06:15;16.10;58.40
2439;DHT22;14509;47.992;7.848;2022-11-15T07:08:35;16.10;58.40
2439;DHT22;14509;47.992;7.848;2022-11-15T07:10:58;16.10;58.40
2439;DHT22;14509;47.992;7.848;2022-11-15T07:13:24;16.20;58.50
2439;DHT22;14509;47.992;7.848;2022-11-15T07:15:44;16.20;58.50
2439;DHT22;14509;47.992;7.848;2022-11-15T07:18:05;16.20;58.50
2439;DHT22;14509;47.992;7.848;2022-11-15T07:20:26;16.30;58.50
2439;DHT22;14509;47.992;7.848;2022-11-15T07:22:47;16.30;58.50
2439;DHT22;14509;47.992;7.848;2022-11-15T07:25:09;16.40;58.50
2439;DHT22;14509;47.992;7.848;2022-11-15T07:27:29;16.40;58.40
2439;DHT22;14509;47.992;7.848;2022-11-15T07:29:51;16.50;58.40
2439;DHT22;14509;47.992;7.848;2022-11-15T07:32:12;16.60;58.40
2439;DHT22;14509;47.992;7.848;2022-11-15T07:34:33;16.80;58.50
2439;DHT22;14509;47.992;7.848;2022-11-15T07:36:53;16.70;58.30
2439;DHT22;14509;47.992;7.848;2022-11-15T07:39:14;16.70;58.30
2439;DHT22;14509;47.992;7.848;2022-11-15T07:41:34;16.80;58.20
2439;DHT22;14509;47.992;7.848;2022-11-15T07:43:55;16.80;58.10
2439;DHT22;14509;47.992;7.848;2022-11-15T07:46:18;16.80;58.00
2439;DHT22;14509;47.992;7.848;2022-11-15T07:48:39;16.90;58.00
2439;DHT22;14509;47.992;7.848;2022-11-15T07:50:59;16.90;57.90
2439;DHT22;14509;47.992;7.848;2022-11-15T07:53:20;16.90;57.80
2439;DHT22;14509;47.992;7.848;2022-11-15T07:55:41;17.00;57.90
2439;DHT22;14509;47.992;7.848;2022-11-15T07:58:02;17.00;57.90
2439;DHT22;14509;47.992;7.848;2022-11-15T08:00:23;17.00;57.90
2439;DHT22;14509;47.992;7.848;2022-11-15T08:02:44;17.10;57.80
2439;DHT22;14509;47.992;7.848;2022-11-15T08:05:05;17.20;57.90
2439;DHT22;14509;47.992;7.848;2022-11-15T08:07:28;17.30;57.90
2439;DHT22;14509;47.992;7.848;2022-11-15T08:09:50;17.40;57.80
2439;DHT22;14509;47.992;7.848;2022-11-15T08:12:11;17.40;57.60
2439;DHT22;14509;47.992;7.848;2022-11-15T08:14:31;17.50;57.50
2439;DHT22;14509;47.992;7.848;2022-11-15T08:16:52;17.60;57.40
2439;DHT22;14509;47.992;7.848;2022-11-15T08:19:15;17.60;57.20
2439;DHT22;14509;47.992;7.848;2022-11-15T08:21:36;17.70;57.20
2439;DHT22;14509;47.992;7.848;2022-11-15T08:23:57;17.70;57.00
2439;DHT22;14509;47.992;7.848;2022-11-15T08:26:18;17.70;56.70
2439;DHT22;14509;47.992;7.848;2022-11-15T08:28:40;17.70;56.70
2439;DHT22;14509;47.992;7.848;2022-11-15T08:31:02;17.80;56.70
2439;DHT22;14509;47.992;7.848;2022-11-15T08:33:23;17.80;56.60
2439;DHT22;14509;47.992;7.848;2022-11-15T08:35:46;17.80;56.70
2439;DHT22;14509;47.992;7.848;2022-11-15T08:38:07;17.80;56.60
2439;DHT22;14509;47.992;7.848;2022-11-15T08:40:28;17.80;56.80
2439;DHT22;14509;47.992;7.848;2022-11-15T08:42:49;17.80;56.90
2439;DHT22;14509;47.992;7.848;2022-11-15T08:45:10;17.90;56.90
2439;DHT22;14509;47.992;7.848;2022-11-15T08:47:30;17.90;56.90
2439;DHT22;14509;47.992;7.848;2022-11-15T08:49:51;17.90;56.80
2439;DHT22;14509;47.992;7.848;2022-11-15T08:52:13;17.90;56.70
2439;DHT22;14509;47.992;7.848;2022-11-15T08:54:34;17.90;56.70
2439;DHT22;14509;47.992;7.848;2022-11-15T08:56:54;17.90;56.70
2439;DHT22;14509;47.992;7.848;2022-11-15T08:59:15;17.90;56.90
2439;DHT22;14509;47.992;7.848;2022-11-15T09:01:36;17.90;56.90
2439;DHT22;14509;47.992;7.848;2022-11-15T09:03:57;17.90;57.00
2439;DHT22;14509;47.992;7.848;2022-11-15T09:06:17;17.90;57.00
2439;DHT22;14509;47.992;7.848;2022-11-15T09:08:39;17.90;56.90
2439;DHT22;14509;47.992;7.848;2022-11-15T09:11:03;18.00;57.00
2439;DHT22;14509;47.992;7.848;2022-11-15T09:13:24;18.00;56.80
2439;DHT22;14509;47.992;7.848;2022-11-15T09:15:45;18.10;56.60
2439;DHT22;14509;47.992;7.848;2022-11-15T09:18:05;18.10;56.50
2439;DHT22;14509;47.992;7.848;2022-11-15T09:20:26;18.20;56.50
2439;DHT22;14509;47.992;7.848;2022-11-15T09:22:47;18.30;56.60
2439;DHT22;14509;47.992;7.848;2022-11-15T09:25:10;18.40;56.70
2439;DHT22;14509;47.992;7.848;2022-11-15T09:27:31;18.60;56.80
2439;DHT22;14509;47.992;7.848;2022-11-15T09:29:52;18.60;56.60
2439;DHT22;14509;47.992;7.848;2022-11-15T09:32:13;18.70;56.40
2439;DHT22;14509;47.992;7.848;2022-11-15T09:34:33;18.70;56.20
2439;DHT22;14509;47.992;7.848;2022-11-15T09:36:54;18.80;56.10
2439;DHT22;14509;47.992;7.848;2022-11-15T09:39:15;18.80;56.00
2439;DHT22;14509;47.992;7.848;2022-11-15T09:41:57;18.90;55.80
2439;DHT22;14509;47.992;7.848;2022-11-15T09:44:34;18.90;55.70
2439;DHT22;14509;47.992;7.848;2022-11-15T09:49:39;18.90;55.40
2439;DHT22;14509;47.992;7.848;2022-11-15T09:51:58;19.00;55.40
2439;DHT22;14509;47.992;7.848;2022-11-15T09:54:09;19.10;55.40
2439;DHT22;14509;47.992;7.848;2022-11-15T09:56:16;19.20;55.40
2439;DHT22;14509;47.992;7.848;2022-11-15T09:58:25;19.30;55.50
2439;DHT22;14509;47.992;7.848;2022-11-15T10:00:33;19.50;55.30
2439;DHT22;14509;47.992;7.848;2022-11-15T10:02:52;19.50;55.00
2439;DHT22;14509;47.992;7.848;2022-11-15T10:04:59;19.60;54.90
2439;DHT22;14509;47.992;7.848;2022-11-15T10:07:06;19.60;54.80
2439;DHT22;14509;47.992;7.848;2022-11-15T10:09:15;19.70;54.70
2439;DHT22;14509;47.992;7.848;2022-11-15T10:11:20;19.80;54.60
2439;DHT22;14509;47.992;7.848;2022-11-15T10:13:40;19.80;54.50
2439;DHT22;14509;47.992;7.848;2022-11-15T10:15:43;19.90;54.30
2439;DHT22;14509;47.992;7.848;2022-11-15T10:18:13;19.90;54.30
2439;DHT22;14509;47.992;7.848;2022-11-15T10:22:26;20.00;54.00
2439;DHT22;14509;47.992;7.848;2022-11-15T10:24:33;20.00;53.90
2439;DHT22;14509;47.992;7.848;2022-11-15T10:26:36;20.10;53.90
2439;DHT22;14509;47.992;7.848;2022-11-15T10:28:39;20.20;53.80
2439;DHT22;14509;47.992;7.848;2022-11-15T10:30:43;20.20;53.60
2439;DHT22;14509;47.992;7.848;2022-11-15T10:32:47;20.20;53.40
2439;DHT22;14509;47.992;7.848;2022-11-15T10:34:50;20.20;53.50
2439;DHT22;14509;47.992;7.848;2022-11-15T10:36:56;20.20;53.40
2439;DHT22;14509;47.992;7.848;2022-11-15T10:38:58;20.10;53.40
2439;DHT22;14509;47.992;7.848;2022-11-15T10:41:07;20.10;53.20
2439;DHT22;14509;47.992;7.848;2022-11-15T10:43:17;20.00;53.20
2439;DHT22;14509;47.992;7.848;2022-11-15T10:45:29;20.00;53.50
2439;DHT22;14509;47.992;7.848;2022-11-15T10:47:32;20.00;53.70
2439;DHT22;14509;47.992;7.848;2022-11-15T10:49:34;19.90;53.80
2439;DHT22;14509;47.992;7.848;2022-11-15T10:51:41;19.90;53.80
2439;DHT22;14509;47.992;7.848;2022-11-15T10:53:45;19.90;54.00
2439;DHT22;14509;47.992;7.848;2022-11-15T10:55:50;19.90;54.10
2439;DHT22;14509;47.992;7.848;2022-11-15T10:57:55;19.90;54.30
2439;DHT22;14509;47.992;7.848;2022-11-15T11:00:00;19.90;54.40
2439;DHT22;14509;47.992;7.848;2022-11-15T11:02:26;19.90;54.50
2439;DHT22;14509;47.992;7.848;2022-11-15T11:04:28;20.00;54.60
2439;DHT22;14509;47.992;7.848;2022-11-15T11:06:31;20.00;54.40
2439;DHT22;14509;47.992;7.848;2022-11-15T11:08:55;20.00;54.40
2439;DHT22;14509;47.992;7.848;2022-11-15T11:10:58;20.00;54.50
2439;DHT22;14509;47.992;7.848;2022-11-15T11:13:21;20.00;54.60
2439;DHT22;14509;47.992;7.848;2022-11-15T11:15:26;20.00;54.70
2439;DHT22;14509;47.992;7.848;2022-11-15T11:17:41;20.00;54.60
2439;DHT22;14509;47.992;7.848;2022-11-15T11:19:58;20.10;54.60
2439;DHT22;14509;47.992;7.848;2022-11-15T11:22:05;20.10;54.50
2439;DHT22;14509;47.992;7.848;2022-11-15T11:24:16;20.10;54.50
2439;DHT22;14509;47.992;7.848;2022-11-15T11:26:34;20.10;54.60
2439;DHT22;14509;47.992;7.848;2022-11-15T11:28:41;20.00;54.50
2439;DHT22;14509;47.992;7.848;2022-11-15T11:30:55;20.00;54.60
2439;DHT22;14509;47.992;7.848;2022-11-15T11:33:13;20.00;54.60
2439;DHT22;14509;47.992;7.848;2022-11-15T11:35:20;20.10;54.70
2439;DHT22;14509;47.992;7.848;2022-11-15T11:37:29;20.30;54.70
2439;DHT22;14509;47.992;7.848;2022-11-15T11:39:43;20.40;54.50
2439;DHT22;14509;47.992;7.848;2022-11-15T11:41:55;20.40;53.90
2439;DHT22;14509;47.992;7.848;2022-11-15T11:44:07;20.60;53.30
2439;DHT22;14509;47.992;7.848;2022-11-15T11:46:26;20.60;53.00
2439;DHT22;14509;47.992;7.848;2022-11-15T11:48:40;20.70;52.40
2439;DHT22;14509;47.992;7.848;2022-11-15T11:50:44;20.80;52.00
2439;DHT22;14509;47.992;7.848;2022-11-15T11:52:56;20.80;51.90
2439;DHT22;14509;47.992;7.848;2022-11-15T11:55:02;20.90;51.80
2439;DHT22;14509;47.992;7.848;2022-11-15T11:57:10;21.00;51.50
2439;DHT22;14509;47.992;7.848;2022-11-15T11:59:21;21.10;51.30
2439;DHT22;14509;47.992;7.848;2022-11-15T12:01:28;21.20;51.00
2439;DHT22;14509;47.992;7.848;2022-11-15T12:03:38;21.30;50.30
2439;DHT22;14509;47.992;7.848;2022-11-15T12:05:44;21.50;50.00
2439;DHT22;14509;47.992;7.848;2022-11-15T12:07:47;21.40;49.60
2439;DHT22;14509;47.992;7.848;2022-11-15T12:09:55;21.40;49.20
2439;DHT22;14509;47.992;7.848;2022-11-15T12:12:05;21.40;49.10
2439;DHT22;14509;47.992;7.848;2022-11-15T12:14:12;21.30;48.60
2439;DHT22;14509;47.992;7.848;2022-11-15T12:16:22;21.20;48.80
2439;DHT22;14509;47.992;7.848;2022-11-15T12:18:25;21.20;48.90
2439;DHT22;14509;47.992;7.848;2022-11-15T12:20:33;21.20;49.10
2439;DHT22;14509;47.992;7.848;2022-11-15T12:22:41;21.20;49.40
2439;DHT22;14509;47.992;7.848;2022-11-15T12:24:48;21.20;49.40
2439;DHT22;14509;47.992;7.848;2022-11-15T12:26:59;21.20;49.20
2439;DHT22;14509;47.992;7.848;2022-11-15T12:29:05;21.20;49.10
2439;DHT22;14509;47.992;7.848;2022-11-15T12:31:15;21.20;48.70
2439;DHT22;14509;47.992;7.848;2022-11-15T12:33:30;21.20;48.70
2439;DHT22;14509;47.992;7.848;2022-11-15T12:35:36;21.10;48.30
2439;DHT22;14509;47.992;7.848;2022-11-15T12:37:50;21.20;48.10
2439;DHT22;14509;47.992;7.848;2022-11-15T12:40:23;21.10;48.00
2439;DHT22;14509;47.992;7.848;2022-11-15T12:42:41;21.10;47.70
2439;DHT22;14509;47.992;7.848;2022-11-15T12:44:59;21.10;47.60
2439;DHT22;14509;47.992;7.848;2022-11-15T12:47:03;21.10;47.40
2439;DHT22;14509;47.992;7.848;2022-11-15T12:49:10;21.00;47.50
2439;DHT22;14509;47.992;7.848;2022-11-15T12:51:13;21.00;47.50
2439;DHT22;14509;47.992;7.848;2022-11-15T12:53:29;21.00;47.40
2439;DHT22;14509;47.992;7.848;2022-11-15T12:55:33;20.90;47.40
2439;DHT22;14509;47.992;7.848;2022-11-15T12:57:39;21.00;47.50
2439;DHT22;14509;47.992;7.848;2022-11-15T12:59:49;21.00;47.80
2439;DHT22;14509;47.992;7.848;2022-11-15T13:01:59;20.90;48.30
2439;DHT22;14509;47.992;7.848;2022-11-15T13:04:13;20.80;49.10
2439;DHT22;14509;47.992;7.848;2022-11-15T13:06:39;20.90;49.30
2439;DHT22;14509;47.992;7.848;2022-11-15T13:08:45;20.90;49.00
2439;DHT22;14509;47.992;7.848;2022-11-15T13:10:52;20.90;49.40
2439;DHT22;14509;47.992;7.848;2022-11-15T13:12:56;20.70;49.70
2439;DHT22;14509;47.992;7.848;2022-11-15T13:14:59;20.80;50.20
2439;DHT22;14509;47.992;7.848;2022-11-15T13:17:02;20.80;50.40
2439;DHT22;14509;47.992;7.848;2022-11-15T13:19:04;20.70;50.60
2439;DHT22;14509;47.992;7.848;2022-11-15T13:21:21;20.70;50.60
2439;DHT22;14509;47.992;7.848;2022-11-15T13:23:42;20.90;50.80
2439;DHT22;14509;47.992;7.848;2022-11-15T13:26:08;20.60;49.90
2439;DHT22;14509;47.992;7.848;2022-11-15T13:28:23;20.50;49.80
2439;DHT22;14509;47.992;7.848;2022-11-15T13:30:28;20.50;49.80
2439;DHT22;14509;47.992;7.848;2022-11-15T13:32:31;20.40;49.80
2439;DHT22;14509;47.992;7.848;2022-11-15T13:34:33;20.40;50.00
2439;DHT22;14509;47.992;7.848;2022-11-15T13:36:36;20.40;50.00
2439;DHT22;14509;47.992;7.848;2022-11-15T13:38:42;20.30;50.00
2439;DHT22;14509;47.992;7.848;2022-11-15T13:40:46;20.20;50.20
2439;DHT22;14509;47.992;7.848;2022-11-15T13:42:48;20.10;50.20
2439;DHT22;14509;47.992;7.848;2022-11-15T13:44:57;20.10;50.50
2439;DHT22;14509;47.992;7.848;2022-11-15T13:47:04;20.00;51.00
2439;DHT22;14509;47.992;7.848;2022-11-15T13:49:09;19.90;51.30
2439;DHT22;14509;47.992;7.848;2022-11-15T13:51:17;19.90;51.50
2439;DHT22;14509;47.992;7.848;2022-11-15T13:53:21;19.80;51.50
2439;DHT22;14509;47.992;7.848;2022-11-15T13:55:23;19.80;51.40
2439;DHT22;14509;47.992;7.848;2022-11-15T13:57:30;19.80;51.60
2439;DHT22;14509;47.992;7.848;2022-11-15T13:59:36;19.70;51.70
2439;DHT22;14509;47.992;7.848;2022-11-15T14:01:41;19.80;52.00
2439;DHT22;14509;47.992;7.848;2022-11-15T14:03:52;19.70;52.00
2439;DHT22;14509;47.992;7.848;2022-11-15T14:06:06;19.60;51.90
2439;DHT22;14509;47.992;7.848;2022-11-15T14:08:22;19.70;51.90
2439;DHT22;14509;47.992;7.848;2022-11-15T14:10:28;19.70;51.60
2439;DHT22;14509;47.992;7.848;2022-11-15T14:12:33;19.70;51.50
2439;DHT22;14509;47.992;7.848;2022-11-15T14:14:44;19.70;51.70
2439;DHT22;14509;47.992;7.848;2022-11-15T14:16:48;19.80;51.00
2439;DHT22;14509;47.992;7.848;2022-11-15T14:18:52;19.70;51.30
2439;DHT22;14509;47.992;7.848;2022-11-15T14:21:06;19.40;50.40
2439;DHT22;14509;47.992;7.848;2022-11-15T14:23:23;19.80;51.10
2439;DHT22;14509;47.992;7.848;2022-11-15T14:25:26;19.80;50.50
2439;DHT22;14509;47.992;7.848;2022-11-15T14:27:29;19.80;50.50
2439;DHT22;14509;47.992;7.848;2022-11-15T14:29:33;19.80;50.20
2439;DHT22;14509;47.992;7.848;2022-11-15T14:31:35;19.80;50.10
2439;DHT22;14509;47.992;7.848;2022-11-15T14:33:38;19.90;50.10
2439;DHT22;14509;47.992;7.848;2022-11-15T14:35:40;19.90;50.10
2439;DHT22;14509;47.992;7.848;2022-11-15T14:37:43;19.90;50.30
2439;DHT22;14509;47.992;7.848;2022-11-15T14:39:45;19.80;50.20
2439;DHT22;14509;47.992;7.848;2022-11-15T14:41:47;19.90;50.20
2439;DHT22;14509;47.992;7.848;2022-11-15T14:43:50;19.80;50.10
2439;DHT22;14509;47.992;7.848;2022-11-15T14:45:54;19.80;50.00
2439;DHT22;14509;47.992;7.848;2022-11-15T14:47:56;19.80;50.00
2439;DHT22;14509;47.992;7.848;2022-11-15T14:49:58;19.80;50.00